sensor_id;sensor_type;location;lat;lon;timestamp;P1;durP1;ratioP1;P2;durP2;ratioP2
79578;SDS011;69051;52.406;5.280;2023-11-21T00:02:17;40.22;;;16.42;;
79578;SDS011;69051;52.406;5.280;2023-11-21T00:04:44;34.92;;;15.10;;
79578;SDS011;69051;52.406;5.280;2023-11-21T00:07:10;35.15;;;14.68;;
79578;SDS011;69051;52.406;5.280;2023-11-21T00:09:37;35.67;;;15.07;;
79578;SDS011;69051;52.406;5.280;2023-11-21T00:12:03;33.00;;;14.73;;
79578;SDS011;69051;52.406;5.280;2023-11-21T00:14:30;33.30;;;13.60;;
79578;SDS011;69051;52.406;5.280;2023-11-21T00:16:57;29.58;;;13.90;;
79578;SDS011;69051;52.406;5.280;2023-11-21T00:19:25;32.03;;;14.15;;
79578;SDS011;69051;52.406;5.280;2023-11-21T00:21:53;33.33;;;13.68;;
79578;SDS011;69051;52.406;5.280;2023-11-21T00:24:20;31.80;;;12.88;;
79578;SDS011;69051;52.406;5.280;2023-11-21T00:26:46;33.00;;;13.70;;
79578;SDS011;69051;52.406;5.280;2023-11-21T00:29:14;34.53;;;14.32;;
79578;SDS011;69051;52.406;5.280;2023-11-21T00:31:43;27.65;;;14.65;;
79578;SDS011;69051;52.406;5.280;2023-11-21T00:34:13;27.35;;;12.68;;
79578;SDS011;69051;52.406;5.280;2023-11-21T00:36:40;37.75;;;13.63;;
79578;SDS011;69051;52.406;5.280;2023-11-21T00:39:06;32.22;;;13.48;;
79578;SDS011;69051;52.406;5.280;2023-11-21T00:41:33;33.05;;;13.10;;
79578;SDS011;69051;52.406;5.280;2023-11-21T00:44:00;28.83;;;12.80;;
79578;SDS011;69051;52.406;5.280;2023-11-21T00:46:27;31.17;;;13.65;;
79578;SDS011;69051;52.406;5.280;2023-11-21T00:48:55;35.70;;;14.20;;
79578;SDS011;69051;52.406;5.280;2023-11-21T00:51:21;31.70;;;12.90;;
79578;SDS011;69051;52.406;5.280;2023-11-21T00:53:48;32.15;;;13.50;;
79578;SDS011;69051;52.406;5.280;2023-11-21T00:56:15;34.00;;;14.27;;
79578;SDS011;69051;52.406;5.280;2023-11-21T00:58:41;40.88;;;16.02;;
79578;SDS011;69051;52.406;5.280;2023-11-21T01:01:15;42.85;;;14.68;;
79578;SDS011;69051;52.406;5.280;2023-11-21T01:03:42;37.45;;;13.70;;
79578;SDS011;69051;52.406;5.280;2023-11-21T01:06:09;32.85;;;14.02;;
79578;SDS011;69051;52.406;5.280;2023-11-21T01:08:38;35.33;;;13.32;;
79578;SDS011;69051;52.406;5.280;2023-11-21T01:11:04;36.10;;;14.30;;
79578;SDS011;69051;52.406;5.280;2023-11-21T01:13:34;29.02;;;12.45;;
79578;SDS011;69051;52.406;5.280;2023-11-21T01:16:03;31.55;;;14.77;;
79578;SDS011;69051;52.406;5.280;2023-11-21T01:18:30;33.08;;;13.52;;
79578;SDS011;69051;52.406;5.280;2023-11-21T01:20:57;37.50;;;12.65;;
79578;SDS011;69051;52.406;5.280;2023-11-21T01:23:23;32.25;;;12.30;;
79578;SDS011;69051;52.406;5.280;2023-11-21T01:25:50;32.72;;;12.40;;
79578;SDS011;69051;52.406;5.280;2023-11-21T01:28:18;38.78;;;13.40;;
79578;SDS011;69051;52.406;5.280;2023-11-21T01:30:46;40.08;;;14.25;;
79578;SDS011;69051;52.406;5.280;2023-11-21T01:33:12;31.10;;;14.25;;
79578;SDS011;69051;52.406;5.280;2023-11-21T01:35:39;36.08;;;12.43;;
79578;SDS011;69051;52.406;5.280;2023-11-21T01:38:06;31.27;;;12.98;;
79578;SDS011;69051;52.406;5.280;2023-11-21T01:40:34;34.80;;;14.20;;
79578;SDS011;69051;52.406;5.280;2023-11-21T01:43:01;31.45;;;14.13;;
79578;SDS011;69051;52.406;5.280;2023-11-21T01:45:30;37.05;;;15.00;;
79578;SDS011;69051;52.406;5.280;2023-11-21T01:47:59;24.33;;;11.73;;
79578;SDS011;69051;52.406;5.280;2023-11-21T01:50:27;34.85;;;12.68;;
79578;SDS011;69051;52.406;5.280;2023-11-21T01:52:54;31.50;;;14.27;;
79578;SDS011;69051;52.406;5.280;2023-11-21T01:55:21;30.60;;;12.13;;
79578;SDS011;69051;52.406;5.280;2023-11-21T01:57:51;29.85;;;12.23;;
79578;SDS011;69051;52.406;5.280;2023-11-21T02:00:17;29.67;;;13.80;;
79578;SDS011;69051;52.406;5.280;2023-11-21T02:02:45;31.35;;;13.48;;
79578;SDS011;69051;52.406;5.280;2023-11-21T02:05:13;29.42;;;12.93;;
79578;SDS011;69051;52.406;5.280;2023-11-21T02:07:44;30.70;;;13.00;;
79578;SDS011;69051;52.406;5.280;2023-11-21T02:10:14;26.67;;;11.48;;
79578;SDS011;69051;52.406;5.280;2023-11-21T02:12:42;29.73;;;11.82;;
79578;SDS011;69051;52.406;5.280;2023-11-21T02:15:10;30.90;;;12.48;;
79578;SDS011;69051;52.406;5.280;2023-11-21T02:17:41;29.67;;;12.57;;
79578;SDS011;69051;52.406;5.280;2023-11-21T02:20:13;29.20;;;12.57;;
79578;SDS011;69051;52.406;5.280;2023-11-21T02:22:50;29.70;;;12.48;;
79578;SDS011;69051;52.406;5.280;2023-11-21T02:27:54;32.03;;;11.23;;
79578;SDS011;69051;52.406;5.280;2023-11-21T02:30:25;30.98;;;11.52;;
79578;SDS011;69051;52.406;5.280;2023-11-21T02:32:52;31.17;;;12.32;;
79578;SDS011;69051;52.406;5.280;2023-11-21T02:35:23;33.53;;;12.27;;
79578;SDS011;69051;52.406;5.280;2023-11-21T02:37:52;30.10;;;11.10;;
79578;SDS011;69051;52.406;5.280;2023-11-21T02:40:19;33.97;;;11.07;;
79578;SDS011;69051;52.406;5.280;2023-11-21T02:42:50;25.08;;;10.23;;
79578;SDS011;69051;52.406;5.280;2023-11-21T02:45:18;31.00;;;10.90;;
79578;SDS011;69051;52.406;5.280;2023-11-21T02:47:48;34.33;;;11.80;;
79578;SDS011;69051;52.406;5.280;2023-11-21T02:50:20;31.48;;;12.20;;
79578;SDS011;69051;52.406;5.280;2023-11-21T02:52:47;30.55;;;11.68;;
79578;SDS011;69051;52.406;5.280;2023-11-21T02:55:14;31.33;;;11.40;;
79578;SDS011;69051;52.406;5.280;2023-11-21T02:57:41;31.08;;;10.57;;
79578;SDS011;69051;52.406;5.280;2023-11-21T03:00:08;27.52;;;11.88;;
79578;SDS011;69051;52.406;5.280;2023-11-21T03:02:36;29.42;;;11.40;;
79578;SDS011;69051;52.406;5.280;2023-11-21T03:05:05;28.92;;;11.05;;
79578;SDS011;69051;52.406;5.280;2023-11-21T03:07:32;27.50;;;11.93;;
79578;SDS011;69051;52.406;5.280;2023-11-21T03:09:59;25.80;;;9.63;;
79578;SDS011;69051;52.406;5.280;2023-11-21T03:12:25;32.17;;;11.77;;
79578;SDS011;69051;52.406;5.280;2023-11-21T03:14:52;29.92;;;10.55;;
79578;SDS011;69051;52.406;5.280;2023-11-21T03:17:20;30.35;;;10.15;;
79578;SDS011;69051;52.406;5.280;2023-11-21T03:19:47;28.33;;;10.43;;
79578;SDS011;69051;52.406;5.280;2023-11-21T03:22:13;28.33;;;11.90;;
79578;SDS011;69051;52.406;5.280;2023-11-21T03:24:40;28.50;;;10.50;;
79578;SDS011;69051;52.406;5.280;2023-11-21T03:27:06;23.13;;;9.52;;
79578;SDS011;69051;52.406;5.280;2023-11-21T03:29:34;27.95;;;11.15;;
79578;SDS011;69051;52.406;5.280;2023-11-21T03:32:00;30.13;;;10.60;;
79578;SDS011;69051;52.406;5.280;2023-11-21T03:34:28;24.27;;;10.45;;
79578;SDS011;69051;52.406;5.280;2023-11-21T03:36:54;29.17;;;10.18;;
79578;SDS011;69051;52.406;5.280;2023-11-21T03:39:21;29.95;;;11.63;;
79578;SDS011;69051;52.406;5.280;2023-11-21T03:41:49;28.02;;;9.95;;
79578;SDS011;69051;52.406;5.280;2023-11-21T03:44:15;23.67;;;9.85;;
79578;SDS011;69051;52.406;5.280;2023-11-21T03:46:42;22.05;;;10.45;;
79578;SDS011;69051;52.406;5.280;2023-11-21T03:49:09;28.50;;;9.45;;
79578;SDS011;69051;52.406;5.280;2023-11-21T03:51:37;26.73;;;11.20;;
79578;SDS011;69051;52.406;5.280;2023-11-21T03:54:03;27.77;;;9.65;;
79578;SDS011;69051;52.406;5.280;2023-11-21T03:56:30;30.67;;;10.05;;
79578;SDS011;69051;52.406;5.280;2023-11-21T03:58:57;32.08;;;10.68;;
79578;SDS011;69051;52.406;5.280;2023-11-21T04:01:24;29.63;;;11.88;;
79578;SDS011;69051;52.406;5.280;2023-11-21T04:03:51;33.65;;;11.20;;
79578;SDS011;69051;52.406;5.280;2023-11-21T04:06:18;27.90;;;10.48;;
79578;SDS011;69051;52.406;5.280;2023-11-21T04:08:45;30.05;;;11.27;;
79578;SDS011;69051;52.406;5.280;2023-11-21T04:11:12;27.80;;;9.88;;
79578;SDS011;69051;52.406;5.280;2023-11-21T04:13:39;27.80;;;10.10;;
79578;SDS011;69051;52.406;5.280;2023-11-21T04:16:06;26.50;;;10.20;;
79578;SDS011;69051;52.406;5.280;2023-11-21T04:18:35;28.13;;;9.65;;
79578;SDS011;69051;52.406;5.280;2023-11-21T04:21:02;28.35;;;11.23;;
79578;SDS011;69051;52.406;5.280;2023-11-21T04:23:30;32.40;;;10.35;;
79578;SDS011;69051;52.406;5.280;2023-11-21T04:25:58;25.42;;;9.35;;
79578;SDS011;69051;52.406;5.280;2023-11-21T04:28:25;28.13;;;9.65;;
79578;SDS011;69051;52.406;5.280;2023-11-21T04:30:51;21.33;;;8.75;;
79578;SDS011;69051;52.406;5.280;2023-11-21T04:33:18;29.60;;;10.57;;
79578;SDS011;69051;52.406;5.280;2023-11-21T04:35:45;30.92;;;9.70;;
79578;SDS011;69051;52.406;5.280;2023-11-21T04:38:12;25.27;;;9.63;;
79578;SDS011;69051;52.406;5.280;2023-11-21T04:40:38;29.05;;;9.50;;
79578;SDS011;69051;52.406;5.280;2023-11-21T04:43:05;26.13;;;8.38;;
79578;SDS011;69051;52.406;5.280;2023-11-21T04:45:32;27.10;;;7.93;;
79578;SDS011;69051;52.406;5.280;2023-11-21T04:47:58;26.77;;;7.57;;
79578;SDS011;69051;52.406;5.280;2023-11-21T04:50:25;23.73;;;7.80;;
79578;SDS011;69051;52.406;5.280;2023-11-21T04:52:55;25.42;;;7.75;;
79578;SDS011;69051;52.406;5.280;2023-11-21T04:55:21;22.70;;;8.32;;
79578;SDS011;69051;52.406;5.280;2023-11-21T04:57:48;18.30;;;6.60;;
79578;SDS011;69051;52.406;5.280;2023-11-21T05:00:14;23.30;;;6.50;;
79578;SDS011;69051;52.406;5.280;2023-11-21T05:02:42;22.13;;;6.60;;
79578;SDS011;69051;52.406;5.280;2023-11-21T05:05:10;20.02;;;6.05;;
79578;SDS011;69051;52.406;5.280;2023-11-21T05:07:37;22.13;;;5.22;;
79578;SDS011;69051;52.406;5.280;2023-11-21T05:10:05;20.70;;;6.70;;
79578;SDS011;69051;52.406;5.280;2023-11-21T05:12:36;20.40;;;5.90;;
79578;SDS011;69051;52.406;5.280;2023-11-21T05:15:06;19.27;;;6.10;;
79578;SDS011;69051;52.406;5.280;2023-11-21T05:17:37;15.73;;;5.78;;
79578;SDS011;69051;52.406;5.280;2023-11-21T05:20:10;17.67;;;6.32;;
79578;SDS011;69051;52.406;5.280;2023-11-21T05:22:38;17.15;;;6.15;;
79578;SDS011;69051;52.406;5.280;2023-11-21T05:25:06;14.32;;;5.00;;
79578;SDS011;69051;52.406;5.280;2023-11-21T05:27:34;16.77;;;4.47;;
79578;SDS011;69051;52.406;5.280;2023-11-21T05:30:02;12.07;;;4.80;;
79578;SDS011;69051;52.406;5.280;2023-11-21T05:32:31;18.45;;;5.00;;
79578;SDS011;69051;52.406;5.280;2023-11-21T05:35:01;15.32;;;4.95;;
79578;SDS011;69051;52.406;5.280;2023-11-21T05:37:27;15.65;;;4.78;;
79578;SDS011;69051;52.406;5.280;2023-11-21T05:39:54;11.90;;;4.25;;
79578;SDS011;69051;52.406;5.280;2023-11-21T05:42:22;10.25;;;4.57;;
79578;SDS011;69051;52.406;5.280;2023-11-21T05:44:49;17.40;;;4.78;;
79578;SDS011;69051;52.406;5.280;2023-11-21T05:47:16;18.60;;;4.65;;
79578;SDS011;69051;52.406;5.280;2023-11-21T05:49:44;16.13;;;4.97;;
79578;SDS011;69051;52.406;5.280;2023-11-21T05:52:12;17.58;;;4.53;;
79578;SDS011;69051;52.406;5.280;2023-11-21T05:54:38;15.77;;;3.78;;
79578;SDS011;69051;52.406;5.280;2023-11-21T05:57:05;17.10;;;3.75;;
79578;SDS011;69051;52.406;5.280;2023-11-21T05:59:31;18.73;;;4.38;;
79578;SDS011;69051;52.406;5.280;2023-11-21T06:01:58;18.52;;;3.75;;
79578;SDS011;69051;52.406;5.280;2023-11-21T06:04:25;14.82;;;4.78;;
79578;SDS011;69051;52.406;5.280;2023-11-21T06:06:52;16.73;;;4.35;;
79578;SDS011;69051;52.406;5.280;2023-11-21T06:09:19;12.27;;;3.78;;
79578;SDS011;69051;52.406;5.280;2023-11-21T06:11:47;16.67;;;3.58;;
79578;SDS011;69051;52.406;5.280;2023-11-21T06:14:13;21.98;;;4.07;;
79578;SDS011;69051;52.406;5.280;2023-11-21T06:16:41;18.27;;;4.25;;
79578;SDS011;69051;52.406;5.280;2023-11-21T06:19:07;22.17;;;4.13;;
79578;SDS011;69051;52.406;5.280;2023-11-21T06:21:34;23.35;;;4.10;;
79578;SDS011;69051;52.406;5.280;2023-11-21T06:24:01;15.27;;;4.35;;
79578;SDS011;69051;52.406;5.280;2023-11-21T06:26:28;16.85;;;3.63;;
79578;SDS011;69051;52.406;5.280;2023-11-21T06:28:54;18.27;;;4.28;;
79578;SDS011;69051;52.406;5.280;2023-11-21T06:31:22;18.70;;;4.45;;
79578;SDS011;69051;52.406;5.280;2023-11-21T06:33:49;15.82;;;3.97;;
79578;SDS011;69051;52.406;5.280;2023-11-21T06:36:18;16.90;;;3.70;;
79578;SDS011;69051;52.406;5.280;2023-11-21T06:38:44;22.00;;;3.88;;
79578;SDS011;69051;52.406;5.280;2023-11-21T06:41:12;14.27;;;4.50;;
79578;SDS011;69051;52.406;5.280;2023-11-21T06:43:42;14.18;;;3.30;;
79578;SDS011;69051;52.406;5.280;2023-11-21T06:46:13;19.83;;;4.68;;
79578;SDS011;69051;52.406;5.280;2023-11-21T06:48:45;20.55;;;3.47;;
79578;SDS011;69051;52.406;5.280;2023-11-21T06:51:12;14.30;;;4.07;;
79578;SDS011;69051;52.406;5.280;2023-11-21T06:53:39;15.90;;;4.32;;
79578;SDS011;69051;52.406;5.280;2023-11-21T06:56:14;13.25;;;4.25;;
79578;SDS011;69051;52.406;5.280;2023-11-21T06:58:42;14.25;;;4.20;;
79578;SDS011;69051;52.406;5.280;2023-11-21T07:01:12;13.82;;;5.15;;
79578;SDS011;69051;52.406;5.280;2023-11-21T07:03:40;13.38;;;3.95;;
79578;SDS011;69051;52.406;5.280;2023-11-21T07:06:08;18.98;;;5.70;;
79578;SDS011;69051;52.406;5.280;2023-11-21T07:08:34;15.15;;;4.68;;
79578;SDS011;69051;52.406;5.280;2023-11-21T07:11:01;18.55;;;4.75;;
79578;SDS011;69051;52.406;5.280;2023-11-21T07:13:30;23.13;;;5.40;;
79578;SDS011;69051;52.406;5.280;2023-11-21T07:15:57;19.92;;;5.38;;
79578;SDS011;69051;52.406;5.280;2023-11-21T07:18:25;18.88;;;5.07;;
79578;SDS011;69051;52.406;5.280;2023-11-21T07:20:51;16.13;;;5.45;;
79578;SDS011;69051;52.406;5.280;2023-11-21T07:23:18;24.08;;;7.03;;
79578;SDS011;69051;52.406;5.280;2023-11-21T07:25:44;23.10;;;5.97;;
79578;SDS011;69051;52.406;5.280;2023-11-21T07:28:11;18.25;;;5.05;;
79578;SDS011;69051;52.406;5.280;2023-11-21T07:30:37;21.50;;;5.05;;
79578;SDS011;69051;52.406;5.280;2023-11-21T07:33:04;13.93;;;4.60;;
79578;SDS011;69051;52.406;5.280;2023-11-21T07:35:30;19.63;;;4.78;;
79578;SDS011;69051;52.406;5.280;2023-11-21T07:37:57;22.40;;;5.05;;
79578;SDS011;69051;52.406;5.280;2023-11-21T07:40:24;16.83;;;5.13;;
79578;SDS011;69051;52.406;5.280;2023-11-21T07:42:51;21.80;;;5.15;;
79578;SDS011;69051;52.406;5.280;2023-11-21T07:45:17;12.07;;;4.55;;
79578;SDS011;69051;52.406;5.280;2023-11-21T07:47:44;10.75;;;3.22;;
79578;SDS011;69051;52.406;5.280;2023-11-21T07:50:10;10.35;;;3.70;;
79578;SDS011;69051;52.406;5.280;2023-11-21T07:52:37;14.60;;;4.45;;
79578;SDS011;69051;52.406;5.280;2023-11-21T07:55:04;20.10;;;6.03;;
79578;SDS011;69051;52.406;5.280;2023-11-21T07:57:31;11.93;;;4.50;;
79578;SDS011;69051;52.406;5.280;2023-11-21T07:59:57;14.43;;;4.28;;
79578;SDS011;69051;52.406;5.280;2023-11-21T08:02:24;15.15;;;5.13;;
79578;SDS011;69051;52.406;5.280;2023-11-21T08:04:52;18.98;;;4.78;;
79578;SDS011;69051;52.406;5.280;2023-11-21T08:07:19;12.93;;;4.85;;
79578;SDS011;69051;52.406;5.280;2023-11-21T08:09:45;15.82;;;5.50;;
79578;SDS011;69051;52.406;5.280;2023-11-21T08:12:12;13.15;;;4.22;;
79578;SDS011;69051;52.406;5.280;2023-11-21T08:14:39;20.13;;;6.78;;
79578;SDS011;69051;52.406;5.280;2023-11-21T08:17:06;13.27;;;4.63;;
79578;SDS011;69051;52.406;5.280;2023-11-21T08:19:33;15.85;;;5.55;;
79578;SDS011;69051;52.406;5.280;2023-11-21T08:22:00;19.05;;;5.45;;
79578;SDS011;69051;52.406;5.280;2023-11-21T08:24:26;13.18;;;3.78;;
79578;SDS011;69051;52.406;5.280;2023-11-21T08:26:53;16.50;;;5.65;;
79578;SDS011;69051;52.406;5.280;2023-11-21T08:29:20;13.80;;;4.68;;
79578;SDS011;69051;52.406;5.280;2023-11-21T08:31:47;14.70;;;4.53;;
79578;SDS011;69051;52.406;5.280;2023-11-21T08:34:14;15.43;;;5.40;;
79578;SDS011;69051;52.406;5.280;2023-11-21T08:36:42;19.10;;;6.90;;
79578;SDS011;69051;52.406;5.280;2023-11-21T08:39:09;13.85;;;5.53;;
79578;SDS011;69051;52.406;5.280;2023-11-21T08:41:39;14.77;;;5.28;;
79578;SDS011;69051;52.406;5.280;2023-11-21T08:44:08;13.13;;;5.47;;
79578;SDS011;69051;52.406;5.280;2023-11-21T08:46:35;14.82;;;5.75;;
79578;SDS011;69051;52.406;5.280;2023-11-21T08:49:04;16.10;;;5.68;;
79578;SDS011;69051;52.406;5.280;2023-11-21T08:51:30;17.02;;;5.78;;
79578;SDS011;69051;52.406;5.280;2023-11-21T08:53:57;16.98;;;6.30;;
79578;SDS011;69051;52.406;5.280;2023-11-21T08:56:26;22.33;;;7.13;;
79578;SDS011;69051;52.406;5.280;2023-11-21T08:58:53;20.67;;;6.25;;
79578;SDS011;69051;52.406;5.280;2023-11-21T09:01:19;24.27;;;7.57;;
79578;SDS011;69051;52.406;5.280;2023-11-21T09:03:47;24.13;;;7.90;;
79578;SDS011;69051;52.406;5.280;2023-11-21T09:06:14;20.55;;;7.28;;
79578;SDS011;69051;52.406;5.280;2023-11-21T09:08:41;25.98;;;8.57;;
79578;SDS011;69051;52.406;5.280;2023-11-21T09:11:08;19.15;;;6.95;;
79578;SDS011;69051;52.406;5.280;2023-11-21T09:13:35;24.27;;;7.75;;
79578;SDS011;69051;52.406;5.280;2023-11-21T09:16:02;27.65;;;6.97;;
79578;SDS011;69051;52.406;5.280;2023-11-21T09:18:29;25.33;;;8.75;;
79578;SDS011;69051;52.406;5.280;2023-11-21T09:20:57;33.05;;;11.70;;
79578;SDS011;69051;52.406;5.280;2023-11-21T09:23:24;28.65;;;7.78;;
79578;SDS011;69051;52.406;5.280;2023-11-21T09:25:50;24.55;;;7.63;;
79578;SDS011;69051;52.406;5.280;2023-11-21T09:28:18;27.75;;;7.05;;
79578;SDS011;69051;52.406;5.280;2023-11-21T09:30:46;24.67;;;8.07;;
79578;SDS011;69051;52.406;5.280;2023-11-21T09:33:12;23.67;;;7.57;;
79578;SDS011;69051;52.406;5.280;2023-11-21T09:35:39;25.40;;;7.70;;
79578;SDS011;69051;52.406;5.280;2023-11-21T09:38:05;27.70;;;8.50;;
79578;SDS011;69051;52.406;5.280;2023-11-21T09:40:37;30.00;;;9.40;;
79578;SDS011;69051;52.406;5.280;2023-11-21T09:43:06;28.33;;;8.52;;
79578;SDS011;69051;52.406;5.280;2023-11-21T09:45:34;27.25;;;8.02;;
79578;SDS011;69051;52.406;5.280;2023-11-21T09:48:01;40.42;;;13.18;;
79578;SDS011;69051;52.406;5.280;2023-11-21T09:50:29;32.33;;;12.93;;
79578;SDS011;69051;52.406;5.280;2023-11-21T09:53:18;39.17;;;10.80;;
79578;SDS011;69051;52.406;5.280;2023-11-21T09:55:48;60.90;;;25.75;;
79578;SDS011;69051;52.406;5.280;2023-11-21T09:58:17;29.50;;;9.98;;
79578;SDS011;69051;52.406;5.280;2023-11-21T10:00:47;30.40;;;9.02;;
79578;SDS011;69051;52.406;5.280;2023-11-21T10:03:15;26.40;;;8.38;;
79578;SDS011;69051;52.406;5.280;2023-11-21T10:05:42;33.40;;;9.10;;
79578;SDS011;69051;52.406;5.280;2023-11-21T10:08:12;33.88;;;9.32;;
79578;SDS011;69051;52.406;5.280;2023-11-21T10:10:45;29.38;;;8.82;;
79578;SDS011;69051;52.406;5.280;2023-11-21T10:13:15;29.75;;;10.13;;
79578;SDS011;69051;52.406;5.280;2023-11-21T10:15:44;29.60;;;9.82;;
79578;SDS011;69051;52.406;5.280;2023-11-21T10:18:17;29.25;;;9.77;;
79578;SDS011;69051;52.406;5.280;2023-11-21T10:20:44;26.70;;;8.52;;
79578;SDS011;69051;52.406;5.280;2023-11-21T10:23:19;32.38;;;10.00;;
79578;SDS011;69051;52.406;5.280;2023-11-21T10:25:47;25.90;;;8.98;;
79578;SDS011;69051;52.406;5.280;2023-11-21T10:28:14;28.52;;;8.25;;
79578;SDS011;69051;52.406;5.280;2023-11-21T10:30:41;26.08;;;8.23;;
79578;SDS011;69051;52.406;5.280;2023-11-21T10:33:08;28.58;;;7.78;;
79578;SDS011;69051;52.406;5.280;2023-11-21T10:35:38;31.00;;;10.25;;
79578;SDS011;69051;52.406;5.280;2023-11-21T10:38:18;25.65;;;8.73;;
79578;SDS011;69051;52.406;5.280;2023-11-21T10:40:46;27.25;;;9.23;;
79578;SDS011;69051;52.406;5.280;2023-11-21T10:43:13;22.45;;;8.02;;
79578;SDS011;69051;52.406;5.280;2023-11-21T10:45:41;24.40;;;9.15;;
79578;SDS011;69051;52.406;5.280;2023-11-21T10:48:09;18.95;;;7.00;;
79578;SDS011;69051;52.406;5.280;2023-11-21T10:50:41;25.48;;;7.95;;
79578;SDS011;69051;52.406;5.280;2023-11-21T10:53:09;20.92;;;7.40;;
79578;SDS011;69051;52.406;5.280;2023-11-21T10:55:36;22.98;;;8.15;;
79578;SDS011;69051;52.406;5.280;2023-11-21T10:58:03;20.35;;;6.82;;
79578;SDS011;69051;52.406;5.280;2023-11-21T11:00:31;23.38;;;8.02;;
79578;SDS011;69051;52.406;5.280;2023-11-21T11:02:59;24.50;;;7.45;;
79578;SDS011;69051;52.406;5.280;2023-11-21T11:05:27;21.80;;;7.50;;
79578;SDS011;69051;52.406;5.280;2023-11-21T11:08:01;25.83;;;8.13;;
79578;SDS011;69051;52.406;5.280;2023-11-21T11:12:59;22.30;;;6.35;;
79578;SDS011;69051;52.406;5.280;2023-11-21T11:15:26;20.95;;;8.05;;
79578;SDS011;69051;52.406;5.280;2023-11-21T11:17:53;19.20;;;7.10;;
79578;SDS011;69051;52.406;5.280;2023-11-21T11:20:29;28.67;;;9.20;;
79578;SDS011;69051;52.406;5.280;2023-11-21T11:23:24;36.28;;;10.65;;
79578;SDS011;69051;52.406;5.280;2023-11-21T11:26:17;45.47;;;12.63;;
79578;SDS011;69051;52.406;5.280;2023-11-21T11:31:43;37.22;;;11.82;;
79578;SDS011;69051;52.406;5.280;2023-11-21T11:34:29;44.03;;;13.68;;
79578;SDS011;69051;52.406;5.280;2023-11-21T11:37:07;45.85;;;12.82;;
79578;SDS011;69051;52.406;5.280;2023-11-21T11:39:42;42.58;;;12.35;;
79578;SDS011;69051;52.406;5.280;2023-11-21T11:42:14;40.55;;;11.38;;
79578;SDS011;69051;52.406;5.280;2023-11-21T11:47:13;51.78;;;12.57;;
79578;SDS011;69051;52.406;5.280;2023-11-21T11:55:06;40.45;;;16.35;;
79578;SDS011;69051;52.406;5.280;2023-11-21T11:57:51;44.88;;;13.85;;
79578;SDS011;69051;52.406;5.280;2023-11-21T12:00:22;39.40;;;14.18;;
79578;SDS011;69051;52.406;5.280;2023-11-21T12:03:12;38.10;;;13.70;;
79578;SDS011;69051;52.406;5.280;2023-11-21T12:05:39;37.75;;;13.75;;
79578;SDS011;69051;52.406;5.280;2023-11-21T12:08:07;32.80;;;12.75;;
79578;SDS011;69051;52.406;5.280;2023-11-21T12:10:35;36.63;;;13.57;;
79578;SDS011;69051;52.406;5.280;2023-11-21T12:13:06;31.88;;;11.85;;
79578;SDS011;69051;52.406;5.280;2023-11-21T12:15:34;31.50;;;10.95;;
79578;SDS011;69051;52.406;5.280;2023-11-21T12:18:01;31.20;;;10.55;;
79578;SDS011;69051;52.406;5.280;2023-11-21T12:20:28;26.23;;;10.52;;
79578;SDS011;69051;52.406;5.280;2023-11-21T12:22:56;33.88;;;12.43;;
79578;SDS011;69051;52.406;5.280;2023-11-21T12:25:26;32.47;;;11.13;;
79578;SDS011;69051;52.406;5.280;2023-11-21T12:27:55;30.02;;;11.90;;
79578;SDS011;69051;52.406;5.280;2023-11-21T12:30:24;27.73;;;11.35;;
79578;SDS011;69051;52.406;5.280;2023-11-21T12:32:54;30.38;;;11.30;;
79578;SDS011;69051;52.406;5.280;2023-11-21T12:35:25;27.55;;;9.93;;
79578;SDS011;69051;52.406;5.280;2023-11-21T12:37:57;28.00;;;9.23;;
79578;SDS011;69051;52.406;5.280;2023-11-21T12:40:23;27.63;;;11.05;;
79578;SDS011;69051;52.406;5.280;2023-11-21T12:42:53;28.52;;;9.85;;
79578;SDS011;69051;52.406;5.280;2023-11-21T12:45:23;27.70;;;10.45;;
79578;SDS011;69051;52.406;5.280;2023-11-21T12:48:04;26.45;;;10.05;;
79578;SDS011;69051;52.406;5.280;2023-11-21T12:50:36;30.33;;;10.65;;
79578;SDS011;69051;52.406;5.280;2023-11-21T12:53:05;33.03;;;9.93;;
79578;SDS011;69051;52.406;5.280;2023-11-21T12:55:36;26.52;;;10.15;;
79578;SDS011;69051;52.406;5.280;2023-11-21T12:58:08;26.10;;;9.75;;
79578;SDS011;69051;52.406;5.280;2023-11-21T13:03:14;31.27;;;11.10;;
79578;SDS011;69051;52.406;5.280;2023-11-21T13:05:52;31.75;;;11.13;;
79578;SDS011;69051;52.406;5.280;2023-11-21T13:08:23;27.52;;;9.50;;
79578;SDS011;69051;52.406;5.280;2023-11-21T13:10:55;28.02;;;10.32;;
79578;SDS011;69051;52.406;5.280;2023-11-21T13:13:24;32.40;;;11.63;;
79578;SDS011;69051;52.406;5.280;2023-11-21T13:15:55;30.42;;;11.85;;
79578;SDS011;69051;52.406;5.280;2023-11-21T13:18:23;31.27;;;11.38;;
79578;SDS011;69051;52.406;5.280;2023-11-21T13:20:50;30.23;;;11.90;;
79578;SDS011;69051;52.406;5.280;2023-11-21T13:23:19;27.70;;;10.60;;
79578;SDS011;69051;52.406;5.280;2023-11-21T13:25:46;25.35;;;9.45;;
79578;SDS011;69051;52.406;5.280;2023-11-21T13:28:28;20.83;;;7.90;;
79578;SDS011;69051;52.406;5.280;2023-11-21T13:30:59;17.85;;;6.40;;
79578;SDS011;69051;52.406;5.280;2023-11-21T13:33:38;19.90;;;7.63;;
79578;SDS011;69051;52.406;5.280;2023-11-21T13:36:08;19.20;;;7.40;;
79578;SDS011;69051;52.406;5.280;2023-11-21T13:38:35;18.65;;;7.43;;
79578;SDS011;69051;52.406;5.280;2023-11-21T13:41:03;21.05;;;8.35;;
79578;SDS011;69051;52.406;5.280;2023-11-21T13:43:33;16.73;;;6.90;;
79578;SDS011;69051;52.406;5.280;2023-11-21T13:46:00;19.05;;;7.03;;
79578;SDS011;69051;52.406;5.280;2023-11-21T13:48:39;16.98;;;7.15;;
79578;SDS011;69051;52.406;5.280;2023-11-21T13:51:22;17.25;;;7.45;;
79578;SDS011;69051;52.406;5.280;2023-11-21T13:53:56;16.58;;;7.50;;
79578;SDS011;69051;52.406;5.280;2023-11-21T13:56:23;20.05;;;7.38;;
79578;SDS011;69051;52.406;5.280;2023-11-21T13:58:51;17.15;;;6.95;;
79578;SDS011;69051;52.406;5.280;2023-11-21T14:01:19;17.20;;;7.43;;
79578;SDS011;69051;52.406;5.280;2023-11-21T14:03:58;17.30;;;7.75;;
79578;SDS011;69051;52.406;5.280;2023-11-21T14:06:39;18.08;;;8.93;;
79578;SDS011;69051;52.406;5.280;2023-11-21T14:09:21;17.05;;;7.22;;
79578;SDS011;69051;52.406;5.280;2023-11-21T14:11:50;18.27;;;8.23;;
79578;SDS011;69051;52.406;5.280;2023-11-21T14:14:22;19.35;;;8.68;;
79578;SDS011;69051;52.406;5.280;2023-11-21T14:16:51;20.50;;;8.57;;
79578;SDS011;69051;52.406;5.280;2023-11-21T14:19:18;19.88;;;9.55;;
79578;SDS011;69051;52.406;5.280;2023-11-21T14:21:45;22.35;;;10.52;;
79578;SDS011;69051;52.406;5.280;2023-11-21T14:24:14;21.10;;;9.05;;
79578;SDS011;69051;52.406;5.280;2023-11-21T14:26:45;18.27;;;8.73;;
79578;SDS011;69051;52.406;5.280;2023-11-21T14:29:12;16.50;;;7.88;;
79578;SDS011;69051;52.406;5.280;2023-11-21T14:31:40;15.40;;;7.32;;
79578;SDS011;69051;52.406;5.280;2023-11-21T14:34:07;16.23;;;7.50;;
79578;SDS011;69051;52.406;5.280;2023-11-21T14:36:34;18.05;;;8.48;;
79578;SDS011;69051;52.406;5.280;2023-11-21T14:39:03;19.92;;;8.50;;
79578;SDS011;69051;52.406;5.280;2023-11-21T14:41:33;16.80;;;7.60;;
79578;SDS011;69051;52.406;5.280;2023-11-21T14:44:01;15.15;;;8.23;;
79578;SDS011;69051;52.406;5.280;2023-11-21T14:46:29;16.30;;;7.60;;
79578;SDS011;69051;52.406;5.280;2023-11-21T14:48:56;17.15;;;8.02;;
79578;SDS011;69051;52.406;5.280;2023-11-21T14:51:33;16.35;;;8.27;;
79578;SDS011;69051;52.406;5.280;2023-11-21T14:54:20;16.90;;;8.40;;
79578;SDS011;69051;52.406;5.280;2023-11-21T14:57:01;17.50;;;8.30;;